Map

Track Data

SID SEASON NUMBER BASIN SUBBASIN NAME ISO_TIME NATURE LAT LON WMO_WIND WMO_PRES WMO_AGENCY TRACK_TYPE DIST2LAND LANDFALL IFLAG USA_AGENCY USA_ATCF_ID USA_LAT USA_LON USA_RECORD USA_STATUS USA_WIND USA_PRES USA_SSHS USA_R34_NE USA_R34_SE USA_R34_SW USA_R34_NW USA_R50_NE USA_R50_SE USA_R50_SW USA_R50_NW USA_R64_NE USA_R64_SE USA_R64_SW USA_R64_NW USA_POCI USA_ROCI USA_RMW USA_EYE TOKYO_LAT TOKYO_LON TOKYO_GRADE TOKYO_WIND TOKYO_PRES TOKYO_R50_DIR TOKYO_R50_LONG TOKYO_R50_SHORT TOKYO_R30_DIR TOKYO_R30_LONG TOKYO_R30_SHORT TOKYO_LAND CMA_LAT CMA_LON CMA_CAT CMA_WIND CMA_PRES HKO_LAT HKO_LON HKO_CAT HKO_WIND HKO_PRES NEWDELHI_LAT NEWDELHI_LON NEWDELHI_GRADE NEWDELHI_WIND NEWDELHI_PRES NEWDELHI_CI NEWDELHI_DP NEWDELHI_POCI REUNION_LAT REUNION_LON REUNION_TYPE REUNION_WIND REUNION_PRES REUNION_TNUM REUNION_CI REUNION_RMW REUNION_R34_NE REUNION_R34_SE REUNION_R34_SW REUNION_R34_NW REUNION_R50_NE REUNION_R50_SE REUNION_R50_SW REUNION_R50_NW REUNION_R64_NE REUNION_R64_SE REUNION_R64_SW REUNION_R64_NW BOM_LAT BOM_LON BOM_TYPE BOM_WIND BOM_PRES BOM_TNUM BOM_CI BOM_RMW BOM_R34_NE BOM_R34_SE BOM_R34_SW BOM_R34_NW BOM_R50_NE BOM_R50_SE BOM_R50_SW BOM_R50_NW BOM_R64_NE BOM_R64_SE BOM_R64_SW BOM_R64_NW BOM_ROCI BOM_POCI BOM_EYE BOM_POS_METHOD BOM_PRES_METHOD NADI_LAT NADI_LON NADI_CAT NADI_WIND NADI_PRES WELLINGTON_LAT WELLINGTON_LON WELLINGTON_WIND WELLINGTON_PRES DS824_LAT DS824_LON DS824_STAGE DS824_WIND DS824_PRES TD9636_LAT TD9636_LON TD9636_STAGE TD9636_WIND TD9636_PRES TD9635_LAT TD9635_LON TD9635_WIND TD9635_PRES TD9635_ROCI NEUMANN_LAT NEUMANN_LON NEUMANN_CLASS NEUMANN_WIND NEUMANN_PRES MLC_LAT MLC_LON MLC_CLASS MLC_WIND MLC_PRES USA_GUST BOM_GUST BOM_GUST_PER REUNION_GUST REUNION_GUST_PER USA_SEAHGT USA_SEARAD_NE USA_SEARAD_SE USA_SEARAD_SW USA_SEARAD_NW STORM_SPEED STORM_DIR
1955068S12062 1955 18 SI MM NOT_NAMED 1955-03-08 18:00:00 TS -12.3000 62.4000 main 1006 956 O________OO___ jtwc_sh SH211955 -12.3000 62.4000 -1 -12.3000 62.4000 TC -12.3000 62.4000 7 11 231
1955068S12062 1955 18 SI MM NOT_NAMED 1955-03-08 21:00:00 TS -12.6537 61.9487 main 941 891 P________PP___ SH211955 -12.6552 61.9427 -1 -12.6552 61.9427 TC -12.6507 61.9605 7 11 231
1955068S12062 1955 18 SI MM NOT_NAMED 1955-03-09 00:00:00 TS -12.9969 61.5088 main 891 842 O________OP___ jtwc_sh SH211955 -13.0000 61.5000 -1 -13.0000 61.5000 TC -12.9908 61.5263 7 11 231
1955068S12062 1955 18 SI MM NOT_NAMED 1955-03-09 03:00:00 TS -13.3184 61.0912 main 842 784 P________PP___ SH211955 -13.3224 61.0849 -1 -13.3224 61.0849 TC -13.3105 61.1039 7 11 231
1955068S12062 1955 18 SI MM NOT_NAMED 1955-03-09 06:00:00 TS -13.6692 60.6462 reunion main 779 746 O____O___OO___ jtwc_sh SH211955 -13.6000 60.7000 -1 -14.5000 60.0000 99 9.90000 -13.6000 60.7000 TC 25 -13.6000 60.7000 1 10 233
1955068S12062 1955 18 SI MM NOT_NAMED 1955-03-09 09:00:00 TS -13.9450 60.2481 main 742 700 P____P___PP___ SH211955 -13.8074 60.3498 -1 -14.6789 59.7015 99 -13.8074 60.3498 TC 25 -13.8534 60.3182 1 9 235
1955068S12062 1955 18 SI MM NOT_NAMED 1955-03-09 12:00:00 TS -14.1933 59.8674 main 700 665 O____P___OP___ jtwc_sh SH211955 -14.0000 60.0000 -1 -14.8608 59.4049 99 -14.0000 60.0000 TC 25 -14.0795 59.9492 1 9 235
1955068S12062 1955 18 SI MM NOT_NAMED 1955-03-09 15:00:00 TS -14.4599 59.4771 main 655 622 P____P___PP___ SH211955 -14.2500 59.6075 -1 -15.0489 59.1126 99 -14.2500 59.6075 TC 25 -14.2909 59.5807 1 9 236
1955068S12062 1955 18 SI MM NOT_NAMED 1955-03-09 18:00:00 TS -14.6866 59.1068 main 622 593 O____P___OO___ jtwc_sh SH211955 -14.5000 59.2000 -1 -15.2466 58.8270 99 -14.5000 59.2000 TC 25 -14.5000 59.2000 1 8 239
1955068S12062 1955 18 SI MM NOT_NAMED 1955-03-09 21:00:00 TS -14.8924 58.7366 main 591 564 P____P___PP___ SH211955 -14.6999 58.8073 -1 -15.4572 58.5506 99 -14.6999 58.8073 TC 25 -14.7128 58.7810 1 8 240
1955068S12062 1955 18 SI MM NOT_NAMED 1955-03-10 00:00:00 TS -15.1029 58.3588 main 564 538 O____P___OP___ jtwc_sh SH211955 -14.9000 58.4000 -1 -15.6840 58.2857 99 -14.9000 58.4000 TC 25 -14.9275 58.3496 1 9 239
1955068S12062 1955 18 SI MM NOT_NAMED 1955-03-10 03:00:00 TS -15.3422 57.9633 main 538 503 P____P___PP___ SH211955 -15.1425 57.9500 -1 -15.9305 58.0347 99 -15.1425 57.9500 TC 25 -15.1534 57.9184 1 9 237
1955068S12062 1955 18 SI MM NOT_NAMED 1955-03-10 06:00:00 TS -15.6000 57.5750 reunion main 503 481 O____O___OO___ jtwc_sh SH211955 -15.4000 57.5000 -1 -16.2000 57.8000 99 9.90000 -15.4000 57.5000 TC 25 -15.4000 57.5000 1 9 235
1955068S12062 1955 18 SI MM NOT_NAMED 1955-03-10 09:00:00 TS -15.8508 57.1976 main 471 452 P____P___PP___ SH211955 -15.6349 57.0848 -1 -16.4951 57.5829 99 -15.6349 57.0848 TC 25 -15.6381 57.0380 1 9 233
1955068S12062 1955 18 SI MM NOT_NAMED 1955-03-10 12:00:00 TS -16.1296 56.8455 main 453 424 O____P___OP___ jtwc_sh SH211955 -15.9000 56.7000 -1 -16.8154 57.3811 99 -15.9000 56.7000 TC 25 -15.9029 56.6009 1 9 228
1955068S12062 1955 18 SI MM NOT_NAMED 1955-03-10 15:00:00 TS -16.4465 56.4987 main 427 390 P____P___PP___ SH211955 -16.2051 56.2827 -1 -17.1597 57.1912 99 -16.2051 56.2827 TC 25 -16.2162 56.2383 1 9 219
1955068S12062 1955 18 SI MM NOT_NAMED 1955-03-10 18:00:00 TS -16.8317 56.2524 main 390 341 O____P___OO___ jtwc_sh SH211955 -16.6000 56.0000 -1 -17.5269 57.0097 99 -16.6000 56.0000 TC 25 -16.6000 56.0000 1 9 199
1955068S12062 1955 18 SI MM NOT_NAMED 1955-03-10 21:00:00 TS -17.3104 56.1955 main 341 291 P____P___PP___ SH211955 -17.1199 55.9822 -1 -17.9157 56.8334 99 -17.1199 55.9822 TC 25 -17.0859 55.9842 1 10 181
1955068S12062 1955 18 SI MM NOT_NAMED 1955-03-11 00:00:00 TS -17.8412 56.2364 main 291 237 O____P___OP___ jtwc_sh SH211955 -17.7000 56.1000 -1 -18.3249 56.6586 99 -17.7000 56.1000 TC 25 -17.6397 56.0870 1 11 175
1955068S12062 1955 18 SI MM NOT_NAMED 1955-03-11 03:00:00 TS -18.3730 56.2907 main 228 183 P____P___PP___ SH211955 -18.2575 56.2296 -1 -18.7534 56.4820 99 -18.2575 56.2296 TC 30 -18.2236 56.2215 1 11 177
1955068S12062 1955 18 SI MM NOT_NAMED 1955-03-11 06:00:00 TS -18.9000 56.3000 reunion main 183 156 O____O___OO___ jtwc_sh SH211955 -18.8000 56.3000 -1 -19.2000 56.3000 99 9.90000 -18.8000 56.3000 TC 35 -18.8000 56.3000 2 10 186
1955068S12062 1955 18 SI MM NOT_NAMED 1955-03-11 09:00:00 TS -19.4022 56.1693 main 156 126 P____P___PP___ SH211955 -19.3075 56.1952 -1 -19.6957 56.0774 99 -19.3075 56.1952 TC 35 -19.2981 56.2093 2 11 197
1955068S12062 1955 18 SI MM NOT_NAMED 1955-03-11 12:00:00 TS -19.9007 55.9739 main 126 67 O____P___OP___ jtwc_sh SH211955 -19.8000 56.0000 -1 -20.2177 55.8480 99 -19.8000 56.0000 TC 35 -19.7850 56.0476 2 11 200
1955068S12062 1955 18 SI MM NOT_NAMED 1955-03-11 15:00:00 TS -20.4007 55.7819 main 67 11 P____P___PP___ SH211955 -20.2849 55.8370 -1 -20.7535 55.6163 99 -20.2849 55.8370 TC 35 -20.2794 55.8370 2 11 201
1955068S12062 1955 18 SI MM NOT_NAMED 1955-03-11 18:00:00 TS -20.9226 55.5468 main 11 0 O____P___OO___ jtwc_sh SH211955 -20.8000 55.6000 -1 -21.2906 55.3874 99 -20.8000 55.6000 TC 35 -20.8000 55.6000 2 12 207
1955068S12062 1955 18 SI MM NOT_NAMED 1955-03-11 21:00:00 TS -21.4855 55.1978 main 24 24 P____P___PP___ SH211955 -21.3853 55.1857 -1 -21.8163 55.1660 99 -21.3853 55.1857 TC 35 -21.3552 55.2537 2 13 209
1955068S12062 1955 18 SI MM NOT_NAMED 1955-03-12 00:00:00 TS -22.0645 54.8654 main 98 98 O____P___OP___ jtwc_sh SH211955 -22.0000 54.8000 -1 -22.3181 54.9575 99 -22.0000 54.8000 TC 35 -21.9400 54.9040 2 13 204
1955068S12062 1955 18 SI MM NOT_NAMED 1955-03-12 03:00:00 TS -22.6268 54.6376 main 162 162 P____P___PP___ SH211955 -22.5846 54.5657 -1 -22.7835 54.7670 99 -22.5846 54.5657 TC 35 -22.5547 54.6518 2 12 192
1955068S12062 1955 18 SI MM NOT_NAMED 1955-03-12 06:00:00 TS -23.2000 54.6000 reunion main 224 224 O____O___OO___ jtwc_sh SH211955 -23.2000 54.6000 -1 -23.2000 54.6000 99 9.90000 -23.2000 54.6000 TC 35 -23.2000 54.6000 2 12 171
1955068S12062 1955 18 SI MM NOT_NAMED 1955-03-12 09:00:00 TS -23.8095 54.8396 main 280 277 P____P___PP___ SH211955 -23.8854 55.0091 -1 -23.5586 54.4605 99 -23.8854 55.0091 TC 35 -23.9085 54.8795 2 14 155
1955068S12062 1955 18 SI MM NOT_NAMED 1955-03-12 12:00:00 TS -24.4256 55.2288 main 337 337 O____P___OP___ jtwc_sh SH211955 -24.6000 55.6000 -1 -23.8636 54.3465 99 -24.6000 55.6000 TC 35 -24.6389 55.3685 2 14 150
1955068S12062 1955 18 SI MM NOT_NAMED 1955-03-12 15:00:00 TS -25.0330 55.6072 main 402 402 P____P___PP___ SH211955 -25.3298 56.1002 -1 -24.1229 54.2547 99 -25.3298 56.1002 TC 35 -25.3496 55.9739 2 14 149
1955068S12062 1955 18 SI MM NOT_NAMED 1955-03-12 18:00:00 TS -25.5860 55.9953 main 471 471 O____P___OO___ jtwc_sh SH211955 -26.0000 56.6000 -1 -24.3440 54.1814 99 -26.0000 56.6000 TC 35 -26.0000 56.6000 2 12 146
1955068S12062 1955 18 SI MM NOT_NAMED 1955-03-12 21:00:00 TS -26.0325 56.3412 main 519 519 P____P___PP___ SH211955 -26.5373 57.1007 -1 -24.5346 54.1230 99 -26.5373 57.1007 TC 30 -26.5209 57.0404 2 12 141
1955068S12062 1955 18 SI MM NOT_NAMED 1955-03-13 00:00:00 TS -26.5361 56.8653 main 585 585 O____P___OP___ jtwc_sh SH211955 -27.0000 57.6000 -1 -24.7024 54.0758 99 -27.0000 57.6000 TC 25 -26.9835 57.4880 2 14 136
1955068S12062 1955 18 SI MM NOT_NAMED 1955-03-13 03:00:00 TS -27.0644 57.4635 main 665 665 P____P___PP___ SH211955 -27.4342 58.0565 -1 -24.8550 54.0360 99 -27.4342 58.0565 TC 25 -27.4295 57.9912 2 17 133
1955068S12062 1955 18 SI MM NOT_NAMED 1955-03-13 06:00:00 TS -27.6769 58.2462 reunion main 751 751 O____O___OO___ jtwc_sh SH211955 -27.9000 58.6000 -1 -25.0000 54.0000 99 9.90000 -27.9000 58.6000 TC 25 -27.9000 58.6000 7 22 131
1955068S12062 1955 18 SI MM NOT_NAMED 1955-03-13 09:00:00 TS -28.4842 59.3376 main 876 876 P________PP___ SH211955 -28.4847 59.3252 -1 99 -28.4847 59.3252 TC 25 -28.4831 59.3624 7 22 129
1955068S12062 1955 18 SI MM NOT_NAMED 1955-03-13 12:00:00 TS -29.0959 60.2131 main 976 976 O________OP___ jtwc_sh SH211955 -29.1000 60.2000 -1 99 -29.1000 60.2000 TC 25 -29.0876 60.2393 7 20 127
1955068S12062 1955 18 SI MM NOT_NAMED 1955-03-13 15:00:00 TS -29.6776 61.1791 main 1083 1083 P________PP___ SH211955 -29.6799 61.1701 -1 99 -29.6799 61.1701 TC 25 -29.6731 61.1971 7 21 123
1955068S12062 1955 18 SI MM NOT_NAMED 1955-03-13 18:00:00 TS -30.2000 62.2000 main 1173 1173 O________OO___ jtwc_sh SH211955 -30.2000 62.2000 -1 99 -30.2000 62.2000 TC 25 -30.2000 62.2000 7 20 119
1955068S12062 1955 18 SI MM NOT_NAMED 1955-03-13 21:00:00 TS -30.6377 63.2012 main 1255 1255 P________PP___ SH211955 -30.6365 63.1936 -1 99 -30.6365 63.1936 TC 25 -30.6399 63.2163 7 19 115
1955068S12062 1955 18 SI MM NOT_NAMED 1955-03-14 00:00:00 TS -31.0017 64.2129 main 1340 1340 O________OP___ jtwc_sh SH211955 -31.0000 64.2000 -1 99 -31.0000 64.2000 TC 25 -31.0051 64.2388 7 19 111
1955068S12062 1955 18 SI MM NOT_NAMED 1955-03-14 03:00:00 TS -31.3155 65.2480 main 1419 1419 P________PP___ SH211955 -31.3144 65.2386 -1 99 -31.3144 65.2386 TC 25 -31.3178 65.2668 7 19 109
1955068S12062 1955 18 SI MM NOT_NAMED 1955-03-14 06:00:00 TS -31.6000 66.3000 main 1506 O________OO___ jtwc_sh SH211955 -31.6000 66.3000 -1 -31.6000 66.3000 TC 25 -31.6000 66.3000 7 19 108

About IBTrACS Database

This database is a web-friendly format of International Best Track Archive for Climate Stewardship (IBTrACS), a global best track data archive curated by NOAA dating back to 1842.

Updated: 2021-12-08